Valletta, Malta
Current Conditions -  °F | °C
As of 12:15 PM on Thursday 18 Dec 2014 (Local Time) from LMML Reporting Station
Few Clouds Few Clouds  
Wind Chill: 63°   Ceiling: Unl
Heat Index: 63°   Visibility: 6mi
Dew Point: 54°   Wind: 13mph
Humidity: 72%   Direction: 290°WNW
Pressure: 30.06"   Gusts: NA
Location:  35.91°N, 14.52°E
Report Text: LMML 181015Z 29011KT 9999 FEW020TCU 17/12 Q1018 NOSIG
Loading
Personal Weather Stations






























Interactive Weather Map New forecast layout! Learn more

10-Day Weather Forecast

Advertisements
Track Severe Weather on mobile